sensor_id;sensor_type;location;lat;lon;timestamp;temperature;humidity
3418;DHT22;68007;51.312;12.372;2024-01-15T00:02:00;2.00;98.00
3418;DHT22;68007;51.312;12.372;2024-01-15T00:04:29;2.00;97.70
3418;DHT22;68007;51.312;12.372;2024-01-15T00:06:57;2.00;97.70
3418;DHT22;68007;51.312;12.372;2024-01-15T00:09:24;2.00;97.60
3418;DHT22;68007;51.312;12.372;2024-01-15T00:11:53;2.00;97.60
3418;DHT22;68007;51.312;12.372;2024-01-15T00:14:21;1.90;97.60
3418;DHT22;68007;51.312;12.372;2024-01-15T00:16:48;1.90;97.60
3418;DHT22;68007;51.312;12.372;2024-01-15T00:19:17;2.00;97.60
3418;DHT22;68007;51.312;12.372;2024-01-15T00:21:46;2.00;97.50
3418;DHT22;68007;51.312;12.372;2024-01-15T00:24:14;1.90;97.60
3418;DHT22;68007;51.312;12.372;2024-01-15T00:26:41;2.00;97.60
3418;DHT22;68007;51.312;12.372;2024-01-15T00:29:09;2.00;97.40
3418;DHT22;68007;51.312;12.372;2024-01-15T00:31:37;2.00;97.40
3418;DHT22;68007;51.312;12.372;2024-01-15T00:34:04;2.00;97.30
3418;DHT22;68007;51.312;12.372;2024-01-15T00:36:32;1.90;97.20
3418;DHT22;68007;51.312;12.372;2024-01-15T00:39:01;1.90;97.80
3418;DHT22;68007;51.312;12.372;2024-01-15T00:41:31;1.90;97.30
3418;DHT22;68007;51.312;12.372;2024-01-15T00:43:58;1.90;97.30
3418;DHT22;68007;51.312;12.372;2024-01-15T00:46:26;1.90;97.30
3418;DHT22;68007;51.312;12.372;2024-01-15T00:48:53;1.90;97.50
3418;DHT22;68007;51.312;12.372;2024-01-15T00:51:21;1.90;97.40
3418;DHT22;68007;51.312;12.372;2024-01-15T00:53:49;1.90;97.30
3418;DHT22;68007;51.312;12.372;2024-01-15T00:56:18;1.90;97.40
3418;DHT22;68007;51.312;12.372;2024-01-15T00:58:45;1.90;97.30
3418;DHT22;68007;51.312;12.372;2024-01-15T01:01:13;1.90;97.30
3418;DHT22;68007;51.312;12.372;2024-01-15T01:03:40;1.90;97.40
3418;DHT22;68007;51.312;12.372;2024-01-15T01:06:08;1.90;97.20
3418;DHT22;68007;51.312;12.372;2024-01-15T01:08:36;1.90;97.20
3418;DHT22;68007;51.312;12.372;2024-01-15T01:11:03;1.90;97.30
3418;DHT22;68007;51.312;12.372;2024-01-15T01:13:33;1.90;97.30
3418;DHT22;68007;51.312;12.372;2024-01-15T01:16:01;1.90;97.30
3418;DHT22;68007;51.312;12.372;2024-01-15T01:18:29;1.80;97.20
3418;DHT22;68007;51.312;12.372;2024-01-15T01:20:57;1.80;97.20
3418;DHT22;68007;51.312;12.372;2024-01-15T01:23:24;1.80;97.20
3418;DHT22;68007;51.312;12.372;2024-01-15T01:25:52;1.80;97.30
3418;DHT22;68007;51.312;12.372;2024-01-15T01:28:19;1.80;97.30
3418;DHT22;68007;51.312;12.372;2024-01-15T01:30:48;1.80;97.50
3418;DHT22;68007;51.312;12.372;2024-01-15T01:33:16;1.80;97.50
3418;DHT22;68007;51.312;12.372;2024-01-15T01:35:43;1.70;97.20
3418;DHT22;68007;51.312;12.372;2024-01-15T01:38:11;1.80;97.30
3418;DHT22;68007;51.312;12.372;2024-01-15T01:40:38;1.80;97.20
3418;DHT22;68007;51.312;12.372;2024-01-15T01:43:06;1.80;97.20
3418;DHT22;68007;51.312;12.372;2024-01-15T01:45:32;1.80;97.20
3418;DHT22;68007;51.312;12.372;2024-01-15T01:48:02;1.80;97.40
3418;DHT22;68007;51.312;12.372;2024-01-15T01:50:30;1.90;97.00
3418;DHT22;68007;51.312;12.372;2024-01-15T01:52:59;1.80;97.20
3418;DHT22;68007;51.312;12.372;2024-01-15T01:55:27;1.80;97.00
3418;DHT22;68007;51.312;12.372;2024-01-15T01:57:56;1.80;97.00
3418;DHT22;68007;51.312;12.372;2024-01-15T02:00:24;1.70;97.10
3418;DHT22;68007;51.312;12.372;2024-01-15T02:02:51;1.70;97.10
3418;DHT22;68007;51.312;12.372;2024-01-15T02:05:21;1.70;97.10
3418;DHT22;68007;51.312;12.372;2024-01-15T02:07:49;1.60;97.00
3418;DHT22;68007;51.312;12.372;2024-01-15T02:10:17;1.70;97.10
3418;DHT22;68007;51.312;12.372;2024-01-15T02:12:44;1.70;97.20
3418;DHT22;68007;51.312;12.372;2024-01-15T02:15:14;1.70;96.90
3418;DHT22;68007;51.312;12.372;2024-01-15T02:17:58;1.70;97.10
3418;DHT22;68007;51.312;12.372;2024-01-15T02:20:27;1.70;97.00
3418;DHT22;68007;51.312;12.372;2024-01-15T02:23:08;1.70;96.80
3418;DHT22;68007;51.312;12.372;2024-01-15T02:25:38;1.60;96.80
3418;DHT22;68007;51.312;12.372;2024-01-15T02:28:07;1.60;97.00
3418;DHT22;68007;51.312;12.372;2024-01-15T02:30:37;1.50;97.10
3418;DHT22;68007;51.312;12.372;2024-01-15T02:33:05;1.50;97.00
3418;DHT22;68007;51.312;12.372;2024-01-15T02:35:33;1.50;96.90
3418;DHT22;68007;51.312;12.372;2024-01-15T02:38:04;1.50;97.00
3418;DHT22;68007;51.312;12.372;2024-01-15T02:40:32;1.50;97.10
3418;DHT22;68007;51.312;12.372;2024-01-15T02:43:00;1.50;96.90
3418;DHT22;68007;51.312;12.372;2024-01-15T02:45:27;1.50;96.90
3418;DHT22;68007;51.312;12.372;2024-01-15T02:47:55;1.40;96.90
3418;DHT22;68007;51.312;12.372;2024-01-15T02:50:22;1.40;97.00
3418;DHT22;68007;51.312;12.372;2024-01-15T02:52:50;1.50;97.20
3418;DHT22;68007;51.312;12.372;2024-01-15T02:55:19;1.50;96.90
3418;DHT22;68007;51.312;12.372;2024-01-15T02:57:46;1.40;96.90
3418;DHT22;68007;51.312;12.372;2024-01-15T03:00:14;1.40;97.00
3418;DHT22;68007;51.312;12.372;2024-01-15T03:02:44;1.40;97.10
3418;DHT22;68007;51.312;12.372;2024-01-15T03:05:12;1.40;97.00
3418;DHT22;68007;51.312;12.372;2024-01-15T03:07:40;1.40;97.10
3418;DHT22;68007;51.312;12.372;2024-01-15T03:10:08;1.40;97.00
3418;DHT22;68007;51.312;12.372;2024-01-15T03:12:37;1.30;97.00
3418;DHT22;68007;51.312;12.372;2024-01-15T03:15:05;1.40;97.30
3418;DHT22;68007;51.312;12.372;2024-01-15T03:17:33;1.30;97.10
3418;DHT22;68007;51.312;12.372;2024-01-15T03:20:00;1.30;97.20
3418;DHT22;68007;51.312;12.372;2024-01-15T03:22:28;1.30;97.10
3418;DHT22;68007;51.312;12.372;2024-01-15T03:24:56;1.30;97.20
3418;DHT22;68007;51.312;12.372;2024-01-15T03:27:23;1.30;97.20
3418;DHT22;68007;51.312;12.372;2024-01-15T03:29:53;1.30;97.10
3418;DHT22;68007;51.312;12.372;2024-01-15T03:32:21;1.30;97.20
3418;DHT22;68007;51.312;12.372;2024-01-15T03:34:48;1.40;97.10
3418;DHT22;68007;51.312;12.372;2024-01-15T03:37:16;1.30;97.10
3418;DHT22;68007;51.312;12.372;2024-01-15T03:39:43;1.30;97.20
3418;DHT22;68007;51.312;12.372;2024-01-15T03:42:10;1.30;97.20
3418;DHT22;68007;51.312;12.372;2024-01-15T03:44:38;1.30;97.20
3418;DHT22;68007;51.312;12.372;2024-01-15T03:47:07;1.30;97.10
3418;DHT22;68007;51.312;12.372;2024-01-15T03:49:34;1.20;97.10
3418;DHT22;68007;51.312;12.372;2024-01-15T03:52:02;1.20;97.20
3418;DHT22;68007;51.312;12.372;2024-01-15T03:54:30;1.20;97.20
3418;DHT22;68007;51.312;12.372;2024-01-15T03:56:57;1.20;97.20
3418;DHT22;68007;51.312;12.372;2024-01-15T03:59:24;1.20;97.10
3418;DHT22;68007;51.312;12.372;2024-01-15T04:01:52;1.20;97.20
3418;DHT22;68007;51.312;12.372;2024-01-15T04:04:21;1.20;97.10
3418;DHT22;68007;51.312;12.372;2024-01-15T04:06:48;1.30;97.20
3418;DHT22;68007;51.312;12.372;2024-01-15T04:09:16;1.20;97.20
3418;DHT22;68007;51.312;12.372;2024-01-15T04:11:43;1.30;97.20
3418;DHT22;68007;51.312;12.372;2024-01-15T04:14:10;1.30;97.30
3418;DHT22;68007;51.312;12.372;2024-01-15T04:16:37;1.30;97.10
3418;DHT22;68007;51.312;12.372;2024-01-15T04:19:05;1.30;97.20
3418;DHT22;68007;51.312;12.372;2024-01-15T04:21:34;1.30;97.10
3418;DHT22;68007;51.312;12.372;2024-01-15T04:24:01;1.30;97.00
3418;DHT22;68007;51.312;12.372;2024-01-15T04:26:29;1.40;97.10
3418;DHT22;68007;51.312;12.372;2024-01-15T04:28:56;1.30;97.10
3418;DHT22;68007;51.312;12.372;2024-01-15T04:31:25;1.30;97.00
3418;DHT22;68007;51.312;12.372;2024-01-15T04:33:53;1.20;97.20
3418;DHT22;68007;51.312;12.372;2024-01-15T04:36:20;1.30;97.00
3418;DHT22;68007;51.312;12.372;2024-01-15T04:38:49;1.30;97.20
3418;DHT22;68007;51.312;12.372;2024-01-15T04:41:17;1.30;97.00
3418;DHT22;68007;51.312;12.372;2024-01-15T04:43:44;1.30;96.90
3418;DHT22;68007;51.312;12.372;2024-01-15T04:46:12;1.20;97.10
3418;DHT22;68007;51.312;12.372;2024-01-15T04:48:39;1.30;97.10
3418;DHT22;68007;51.312;12.372;2024-01-15T04:51:09;1.30;97.00
3418;DHT22;68007;51.312;12.372;2024-01-15T04:53:36;1.20;96.90
3418;DHT22;68007;51.312;12.372;2024-01-15T04:56:05;1.20;96.90
3418;DHT22;68007;51.312;12.372;2024-01-15T04:58:33;1.20;96.80
3418;DHT22;68007;51.312;12.372;2024-01-15T05:01:00;1.20;96.90
3418;DHT22;68007;51.312;12.372;2024-01-15T05:03:28;1.10;96.90
3418;DHT22;68007;51.312;12.372;2024-01-15T05:05:55;1.10;96.90
3418;DHT22;68007;51.312;12.372;2024-01-15T05:08:23;1.10;97.00
3418;DHT22;68007;51.312;12.372;2024-01-15T05:10:50;1.20;96.90
3418;DHT22;68007;51.312;12.372;2024-01-15T05:13:19;1.10;96.70
3418;DHT22;68007;51.312;12.372;2024-01-15T05:15:47;1.10;96.70
3418;DHT22;68007;51.312;12.372;2024-01-15T05:18:15;1.20;96.80
3418;DHT22;68007;51.312;12.372;2024-01-15T05:20:42;1.10;96.60
3418;DHT22;68007;51.312;12.372;2024-01-15T05:23:10;1.20;96.70
3418;DHT22;68007;51.312;12.372;2024-01-15T05:25:37;1.20;96.50
3418;DHT22;68007;51.312;12.372;2024-01-15T05:28:05;1.20;96.40
3418;DHT22;68007;51.312;12.372;2024-01-15T05:30:34;1.20;96.50
3418;DHT22;68007;51.312;12.372;2024-01-15T05:33:02;1.10;96.50
3418;DHT22;68007;51.312;12.372;2024-01-15T05:35:30;1.20;96.60
3418;DHT22;68007;51.312;12.372;2024-01-15T05:37:57;1.20;96.50
3418;DHT22;68007;51.312;12.372;2024-01-15T05:40:25;1.20;96.40
3418;DHT22;68007;51.312;12.372;2024-01-15T05:42:52;1.20;96.60
3418;DHT22;68007;51.312;12.372;2024-01-15T05:45:20;1.20;96.50
3418;DHT22;68007;51.312;12.372;2024-01-15T05:47:48;1.20;96.50
3418;DHT22;68007;51.312;12.372;2024-01-15T05:50:16;1.20;96.40
3418;DHT22;68007;51.312;12.372;2024-01-15T05:52:44;1.30;96.40
3418;DHT22;68007;51.312;12.372;2024-01-15T05:55:11;1.30;96.20
3418;DHT22;68007;51.312;12.372;2024-01-15T05:57:39;1.20;96.20
3418;DHT22;68007;51.312;12.372;2024-01-15T06:00:07;1.20;96.30
3418;DHT22;68007;51.312;12.372;2024-01-15T06:02:37;1.20;96.10
3418;DHT22;68007;51.312;12.372;2024-01-15T06:05:06;1.20;96.30
3418;DHT22;68007;51.312;12.372;2024-01-15T06:07:34;1.20;96.10
3418;DHT22;68007;51.312;12.372;2024-01-15T06:10:01;1.20;96.10
3418;DHT22;68007;51.312;12.372;2024-01-15T06:12:29;1.20;96.20
3418;DHT22;68007;51.312;12.372;2024-01-15T06:14:57;1.20;96.10
3418;DHT22;68007;51.312;12.372;2024-01-15T06:17:24;1.20;96.00
3418;DHT22;68007;51.312;12.372;2024-01-15T06:19:52;1.20;96.10
3418;DHT22;68007;51.312;12.372;2024-01-15T06:22:20;1.20;96.20
3418;DHT22;68007;51.312;12.372;2024-01-15T06:24:48;1.20;96.00
3418;DHT22;68007;51.312;12.372;2024-01-15T06:27:15;1.20;96.10
3418;DHT22;68007;51.312;12.372;2024-01-15T06:29:45;1.30;96.00
3418;DHT22;68007;51.312;12.372;2024-01-15T06:32:13;1.20;95.80
3418;DHT22;68007;51.312;12.372;2024-01-15T06:34:40;1.20;95.90
3418;DHT22;68007;51.312;12.372;2024-01-15T06:37:08;1.20;95.90
3418;DHT22;68007;51.312;12.372;2024-01-15T06:39:37;1.20;95.80
3418;DHT22;68007;51.312;12.372;2024-01-15T06:42:05;1.20;96.00
3418;DHT22;68007;51.312;12.372;2024-01-15T06:44:33;1.20;96.00
3418;DHT22;68007;51.312;12.372;2024-01-15T06:47:00;1.30;95.90
3418;DHT22;68007;51.312;12.372;2024-01-15T06:49:28;1.30;95.70
3418;DHT22;68007;51.312;12.372;2024-01-15T06:51:58;1.30;95.90
3418;DHT22;68007;51.312;12.372;2024-01-15T06:54:25;1.30;95.70
3418;DHT22;68007;51.312;12.372;2024-01-15T06:56:54;1.20;95.70
3418;DHT22;68007;51.312;12.372;2024-01-15T06:59:22;1.20;95.60
3418;DHT22;68007;51.312;12.372;2024-01-15T07:01:49;1.20;95.70
3418;DHT22;68007;51.312;12.372;2024-01-15T07:04:17;1.20;95.80
3418;DHT22;68007;51.312;12.372;2024-01-15T07:06:44;1.20;95.70
3418;DHT22;68007;51.312;12.372;2024-01-15T07:09:12;1.20;95.60
3418;DHT22;68007;51.312;12.372;2024-01-15T07:11:44;1.20;95.60
3418;DHT22;68007;51.312;12.372;2024-01-15T07:14:13;1.20;95.60
3418;DHT22;68007;51.312;12.372;2024-01-15T07:16:41;1.20;95.70
3418;DHT22;68007;51.312;12.372;2024-01-15T07:19:08;1.20;95.50
3418;DHT22;68007;51.312;12.372;2024-01-15T07:21:35;1.30;95.50
3418;DHT22;68007;51.312;12.372;2024-01-15T07:24:06;1.30;95.50
3418;DHT22;68007;51.312;12.372;2024-01-15T07:26:33;1.30;95.40
3418;DHT22;68007;51.312;12.372;2024-01-15T07:29:01;1.30;95.50
3418;DHT22;68007;51.312;12.372;2024-01-15T07:31:30;1.30;95.40
3418;DHT22;68007;51.312;12.372;2024-01-15T07:33:58;1.30;95.40
3418;DHT22;68007;51.312;12.372;2024-01-15T07:36:26;1.20;95.40
3418;DHT22;68007;51.312;12.372;2024-01-15T07:38:53;1.30;95.50
3418;DHT22;68007;51.312;12.372;2024-01-15T07:41:21;1.30;95.40
3418;DHT22;68007;51.312;12.372;2024-01-15T07:43:49;1.30;95.30
3418;DHT22;68007;51.312;12.372;2024-01-15T07:46:17;1.30;95.40
3418;DHT22;68007;51.312;12.372;2024-01-15T07:48:46;1.30;95.20
3418;DHT22;68007;51.312;12.372;2024-01-15T07:51:13;1.30;95.30
3418;DHT22;68007;51.312;12.372;2024-01-15T07:53:41;1.30;95.60
3418;DHT22;68007;51.312;12.372;2024-01-15T07:56:08;1.20;95.40
3418;DHT22;68007;51.312;12.372;2024-01-15T07:58:36;1.30;95.30
3418;DHT22;68007;51.312;12.372;2024-01-15T08:01:03;1.30;95.30
3418;DHT22;68007;51.312;12.372;2024-01-15T08:03:32;1.20;95.30
3418;DHT22;68007;51.312;12.372;2024-01-15T08:06:01;1.20;95.30
3418;DHT22;68007;51.312;12.372;2024-01-15T08:08:28;1.20;95.20
3418;DHT22;68007;51.312;12.372;2024-01-15T08:10:56;1.20;95.40
3418;DHT22;68007;51.312;12.372;2024-01-15T08:13:26;1.20;95.40
3418;DHT22;68007;51.312;12.372;2024-01-15T08:15:54;1.20;95.40
3418;DHT22;68007;51.312;12.372;2024-01-15T08:18:21;1.30;95.50
3418;DHT22;68007;51.312;12.372;2024-01-15T08:20:49;1.30;95.30
3418;DHT22;68007;51.312;12.372;2024-01-15T08:23:19;1.30;95.20
3418;DHT22;68007;51.312;12.372;2024-01-15T08:25:47;1.30;95.30
3418;DHT22;68007;51.312;12.372;2024-01-15T08:28:15;1.40;95.10
3418;DHT22;68007;51.312;12.372;2024-01-15T08:30:42;1.40;95.00
3418;DHT22;68007;51.312;12.372;2024-01-15T08:33:11;1.40;95.10
3418;DHT22;68007;51.312;12.372;2024-01-15T08:35:39;1.40;95.00
3418;DHT22;68007;51.312;12.372;2024-01-15T08:38:06;1.40;95.00
3418;DHT22;68007;51.312;12.372;2024-01-15T08:40:35;1.40;95.00
3418;DHT22;68007;51.312;12.372;2024-01-15T08:43:03;1.40;95.10
3418;DHT22;68007;51.312;12.372;2024-01-15T08:45:33;1.40;95.00
3418;DHT22;68007;51.312;12.372;2024-01-15T08:48:00;1.40;95.00
3418;DHT22;68007;51.312;12.372;2024-01-15T08:50:29;1.40;95.10
3418;DHT22;68007;51.312;12.372;2024-01-15T08:52:58;1.40;95.10
3418;DHT22;68007;51.312;12.372;2024-01-15T08:55:25;1.50;95.00
3418;DHT22;68007;51.312;12.372;2024-01-15T08:57:54;1.50;94.90
3418;DHT22;68007;51.312;12.372;2024-01-15T09:00:22;1.40;94.90
3418;DHT22;68007;51.312;12.372;2024-01-15T09:02:49;1.50;95.20
3418;DHT22;68007;51.312;12.372;2024-01-15T09:05:17;1.50;95.00
3418;DHT22;68007;51.312;12.372;2024-01-15T09:07:44;1.60;94.80
3418;DHT22;68007;51.312;12.372;2024-01-15T09:10:13;1.60;94.70
3418;DHT22;68007;51.312;12.372;2024-01-15T09:12:40;1.60;94.80
3418;DHT22;68007;51.312;12.372;2024-01-15T09:15:10;1.60;94.80
3418;DHT22;68007;51.312;12.372;2024-01-15T09:17:38;1.60;94.60
3418;DHT22;68007;51.312;12.372;2024-01-15T09:20:06;1.70;94.70
3418;DHT22;68007;51.312;12.372;2024-01-15T09:22:34;1.70;94.70
3418;DHT22;68007;51.312;12.372;2024-01-15T09:25:02;1.70;94.70
3418;DHT22;68007;51.312;12.372;2024-01-15T09:27:31;1.70;94.50
3418;DHT22;68007;51.312;12.372;2024-01-15T09:29:59;1.70;94.70
3418;DHT22;68007;51.312;12.372;2024-01-15T09:32:28;1.60;94.80
3418;DHT22;68007;51.312;12.372;2024-01-15T09:34:55;1.70;94.70
3418;DHT22;68007;51.312;12.372;2024-01-15T09:37:23;1.70;94.70
3418;DHT22;68007;51.312;12.372;2024-01-15T09:39:50;1.70;94.70
3418;DHT22;68007;51.312;12.372;2024-01-15T09:42:18;1.70;94.70
3418;DHT22;68007;51.312;12.372;2024-01-15T09:44:46;1.80;94.60
3418;DHT22;68007;51.312;12.372;2024-01-15T09:47:15;1.80;94.60
3418;DHT22;68007;51.312;12.372;2024-01-15T09:49:44;1.80;94.70
3418;DHT22;68007;51.312;12.372;2024-01-15T09:52:12;1.80;94.50
3418;DHT22;68007;51.312;12.372;2024-01-15T09:54:43;1.80;94.50
3418;DHT22;68007;51.312;12.372;2024-01-15T09:57:11;1.80;94.60
3418;DHT22;68007;51.312;12.372;2024-01-15T09:59:39;1.80;94.60
3418;DHT22;68007;51.312;12.372;2024-01-15T10:02:10;1.80;94.50
3418;DHT22;68007;51.312;12.372;2024-01-15T10:04:40;1.90;94.50
3418;DHT22;68007;51.312;12.372;2024-01-15T10:07:14;1.90;94.50
3418;DHT22;68007;51.312;12.372;2024-01-15T10:09:42;1.90;94.30
3418;DHT22;68007;51.312;12.372;2024-01-15T10:12:10;2.00;94.30
3418;DHT22;68007;51.312;12.372;2024-01-15T10:14:38;2.00;94.20
3418;DHT22;68007;51.312;12.372;2024-01-15T10:17:12;2.00;94.20
3418;DHT22;68007;51.312;12.372;2024-01-15T10:19:40;2.00;94.20
3418;DHT22;68007;51.312;12.372;2024-01-15T10:22:08;2.10;94.10
3418;DHT22;68007;51.312;12.372;2024-01-15T10:24:37;2.10;94.20
3418;DHT22;68007;51.312;12.372;2024-01-15T10:27:05;2.00;94.10
3418;DHT22;68007;51.312;12.372;2024-01-15T10:29:33;2.00;94.20
3418;DHT22;68007;51.312;12.372;2024-01-15T10:32:05;2.10;94.20
3418;DHT22;68007;51.312;12.372;2024-01-15T10:34:33;2.10;94.20
3418;DHT22;68007;51.312;12.372;2024-01-15T10:37:01;2.10;94.20
3418;DHT22;68007;51.312;12.372;2024-01-15T10:39:29;2.10;94.10
3418;DHT22;68007;51.312;12.372;2024-01-15T10:41:58;2.10;94.20
3418;DHT22;68007;51.312;12.372;2024-01-15T10:44:26;2.20;94.20
3418;DHT22;68007;51.312;12.372;2024-01-15T10:46:55;2.30;95.80
3418;DHT22;68007;51.312;12.372;2024-01-15T10:49:24;2.50;95.90
3418;DHT22;68007;51.312;12.372;2024-01-15T10:51:52;2.60;95.80
3418;DHT22;68007;51.312;12.372;2024-01-15T10:54:21;2.60;94.70
3418;DHT22;68007;51.312;12.372;2024-01-15T10:56:50;2.60;94.60
3418;DHT22;68007;51.312;12.372;2024-01-15T10:59:21;2.60;94.10
3418;DHT22;68007;51.312;12.372;2024-01-15T11:01:50;2.50;93.90
3418;DHT22;68007;51.312;12.372;2024-01-15T11:04:19;2.50;94.00
3418;DHT22;68007;51.312;12.372;2024-01-15T11:06:50;2.40;94.00
3418;DHT22;68007;51.312;12.372;2024-01-15T11:09:18;2.40;93.90
3418;DHT22;68007;51.312;12.372;2024-01-15T11:11:46;2.40;94.00
3418;DHT22;68007;51.312;12.372;2024-01-15T11:14:35;2.40;94.20
3418;DHT22;68007;51.312;12.372;2024-01-15T11:17:03;2.40;94.00
3418;DHT22;68007;51.312;12.372;2024-01-15T11:19:36;2.40;93.90
3418;DHT22;68007;51.312;12.372;2024-01-15T11:22:08;2.40;94.10
3418;DHT22;68007;51.312;12.372;2024-01-15T11:24:37;2.40;94.10
3418;DHT22;68007;51.312;12.372;2024-01-15T11:27:06;2.50;94.00
3418;DHT22;68007;51.312;12.372;2024-01-15T11:29:36;2.50;93.80
3418;DHT22;68007;51.312;12.372;2024-01-15T11:32:06;2.50;93.80
3418;DHT22;68007;51.312;12.372;2024-01-15T11:34:56;2.40;93.90
3418;DHT22;68007;51.312;12.372;2024-01-15T11:37:29;2.50;93.90
3418;DHT22;68007;51.312;12.372;2024-01-15T11:40:01;2.50;93.80
3418;DHT22;68007;51.312;12.372;2024-01-15T11:42:29;2.40;93.90
3418;DHT22;68007;51.312;12.372;2024-01-15T11:44:58;2.40;93.90
3418;DHT22;68007;51.312;12.372;2024-01-15T11:50:30;2.40;94.00
3418;DHT22;68007;51.312;12.372;2024-01-15T11:53:00;2.40;93.90
3418;DHT22;68007;51.312;12.372;2024-01-15T11:55:33;2.40;94.00
3418;DHT22;68007;51.312;12.372;2024-01-15T11:58:02;2.50;93.90
3418;DHT22;68007;51.312;12.372;2024-01-15T12:00:33;2.50;94.00
3418;DHT22;68007;51.312;12.372;2024-01-15T12:03:00;2.50;93.90
3418;DHT22;68007;51.312;12.372;2024-01-15T12:05:28;2.50;93.80
3418;DHT22;68007;51.312;12.372;2024-01-15T12:07:56;2.50;94.00
3418;DHT22;68007;51.312;12.372;2024-01-15T12:10:24;2.50;93.80
3418;DHT22;68007;51.312;12.372;2024-01-15T12:12:58;2.50;93.80
3418;DHT22;68007;51.312;12.372;2024-01-15T12:15:28;2.50;93.70
3418;DHT22;68007;51.312;12.372;2024-01-15T12:17:58;2.50;93.80
3418;DHT22;68007;51.312;12.372;2024-01-15T12:20:27;2.50;93.80
3418;DHT22;68007;51.312;12.372;2024-01-15T12:22:55;2.50;93.90
3418;DHT22;68007;51.312;12.372;2024-01-15T12:25:23;2.50;93.80
3418;DHT22;68007;51.312;12.372;2024-01-15T12:27:51;2.60;93.90
3418;DHT22;68007;51.312;12.372;2024-01-15T12:30:19;2.70;93.70
3418;DHT22;68007;51.312;12.372;2024-01-15T12:32:46;2.60;93.70
3418;DHT22;68007;51.312;12.372;2024-01-15T12:35:15;2.70;93.80
3418;DHT22;68007;51.312;12.372;2024-01-15T12:37:43;2.70;93.60
3418;DHT22;68007;51.312;12.372;2024-01-15T12:40:12;2.70;93.60
3418;DHT22;68007;51.312;12.372;2024-01-15T12:42:40;2.70;93.50
3418;DHT22;68007;51.312;12.372;2024-01-15T12:45:10;2.70;93.60
3418;DHT22;68007;51.312;12.372;2024-01-15T12:47:39;2.70;93.50
3418;DHT22;68007;51.312;12.372;2024-01-15T12:50:07;2.70;93.60
3418;DHT22;68007;51.312;12.372;2024-01-15T12:52:37;2.60;93.50
3418;DHT22;68007;51.312;12.372;2024-01-15T12:55:05;2.60;93.60
3418;DHT22;68007;51.312;12.372;2024-01-15T12:57:34;2.60;93.70
3418;DHT22;68007;51.312;12.372;2024-01-15T13:00:01;2.70;93.70
3418;DHT22;68007;51.312;12.372;2024-01-15T13:02:32;2.70;93.60
3418;DHT22;68007;51.312;12.372;2024-01-15T13:05:00;2.60;93.70
3418;DHT22;68007;51.312;12.372;2024-01-15T13:07:30;2.70;93.70
3418;DHT22;68007;51.312;12.372;2024-01-15T13:09:59;2.70;93.70
3418;DHT22;68007;51.312;12.372;2024-01-15T13:12:27;2.70;93.60
3418;DHT22;68007;51.312;12.372;2024-01-15T13:14:54;2.80;93.60
3418;DHT22;68007;51.312;12.372;2024-01-15T13:17:22;2.70;93.60
3418;DHT22;68007;51.312;12.372;2024-01-15T13:19:50;2.80;93.60
3418;DHT22;68007;51.312;12.372;2024-01-15T13:22:17;2.70;93.70
3418;DHT22;68007;51.312;12.372;2024-01-15T13:24:45;2.70;93.80
3418;DHT22;68007;51.312;12.372;2024-01-15T13:27:13;2.70;93.90
3418;DHT22;68007;51.312;12.372;2024-01-15T13:29:41;2.70;94.10
3418;DHT22;68007;51.312;12.372;2024-01-15T13:32:11;2.70;94.10
3418;DHT22;68007;51.312;12.372;2024-01-15T13:34:43;2.70;94.10
3418;DHT22;68007;51.312;12.372;2024-01-15T13:37:10;2.60;94.20
3418;DHT22;68007;51.312;12.372;2024-01-15T13:39:38;2.60;94.40
3418;DHT22;68007;51.312;12.372;2024-01-15T13:42:05;2.70;94.20
3418;DHT22;68007;51.312;12.372;2024-01-15T13:44:34;2.70;94.10
3418;DHT22;68007;51.312;12.372;2024-01-15T13:47:02;2.70;94.20
3418;DHT22;68007;51.312;12.372;2024-01-15T13:49:31;2.70;94.20
3418;DHT22;68007;51.312;12.372;2024-01-15T13:52:00;2.80;94.40
3418;DHT22;68007;51.312;12.372;2024-01-15T13:54:30;2.80;94.00
3418;DHT22;68007;51.312;12.372;2024-01-15T13:56:57;2.70;94.10
3418;DHT22;68007;51.312;12.372;2024-01-15T13:59:25;2.70;94.20
3418;DHT22;68007;51.312;12.372;2024-01-15T14:01:54;2.70;94.20
3418;DHT22;68007;51.312;12.372;2024-01-15T14:04:22;2.80;94.10
3418;DHT22;68007;51.312;12.372;2024-01-15T14:06:49;2.70;94.00
3418;DHT22;68007;51.312;12.372;2024-01-15T14:09:17;2.70;94.10
3418;DHT22;68007;51.312;12.372;2024-01-15T14:11:44;2.70;94.20
3418;DHT22;68007;51.312;12.372;2024-01-15T14:14:12;2.70;94.10
3418;DHT22;68007;51.312;12.372;2024-01-15T14:16:39;2.70;94.10
3418;DHT22;68007;51.312;12.372;2024-01-15T14:19:08;2.70;94.20
3418;DHT22;68007;51.312;12.372;2024-01-15T14:21:36;2.70;94.00
3418;DHT22;68007;51.312;12.372;2024-01-15T14:24:05;2.70;94.00
3418;DHT22;68007;51.312;12.372;2024-01-15T14:26:32;2.70;94.20
3418;DHT22;68007;51.312;12.372;2024-01-15T14:29:00;2.70;94.30
3418;DHT22;68007;51.312;12.372;2024-01-15T14:31:27;2.70;94.10
3418;DHT22;68007;51.312;12.372;2024-01-15T14:33:55;2.70;94.10
3418;DHT22;68007;51.312;12.372;2024-01-15T14:36:24;2.70;94.30
3418;DHT22;68007;51.312;12.372;2024-01-15T14:38:51;2.70;94.20
3418;DHT22;68007;51.312;12.372;2024-01-15T14:41:18;2.70;94.20
3418;DHT22;68007;51.312;12.372;2024-01-15T14:43:46;2.60;94.30
3418;DHT22;68007;51.312;12.372;2024-01-15T14:46:14;2.60;94.40
3418;DHT22;68007;51.312;12.372;2024-01-15T14:48:41;2.50;94.60
3418;DHT22;68007;51.312;12.372;2024-01-15T14:51:11;2.60;94.80
3418;DHT22;68007;51.312;12.372;2024-01-15T14:53:39;2.60;94.50
3418;DHT22;68007;51.312;12.372;2024-01-15T14:56:07;2.60;94.60
3418;DHT22;68007;51.312;12.372;2024-01-15T14:58:34;2.70;94.50
3418;DHT22;68007;51.312;12.372;2024-01-15T15:01:02;2.60;94.60
3418;DHT22;68007;51.312;12.372;2024-01-15T15:03:30;2.60;95.00
3418;DHT22;68007;51.312;12.372;2024-01-15T15:05:57;2.60;94.80
3418;DHT22;68007;51.312;12.372;2024-01-15T15:08:25;2.60;94.80
3418;DHT22;68007;51.312;12.372;2024-01-15T15:10:53;2.60;94.90
3418;DHT22;68007;51.312;12.372;2024-01-15T15:13:22;2.60;94.80
3418;DHT22;68007;51.312;12.372;2024-01-15T15:15:52;2.60;94.80
3418;DHT22;68007;51.312;12.372;2024-01-15T15:18:19;2.60;94.90
3418;DHT22;68007;51.312;12.372;2024-01-15T15:20:47;2.60;94.90
3418;DHT22;68007;51.312;12.372;2024-01-15T15:23:15;2.60;95.10
3418;DHT22;68007;51.312;12.372;2024-01-15T15:25:43;2.60;95.00
3418;DHT22;68007;51.312;12.372;2024-01-15T15:28:12;2.50;95.10
3418;DHT22;68007;51.312;12.372;2024-01-15T15:30:42;2.60;95.20
3418;DHT22;68007;51.312;12.372;2024-01-15T15:33:09;2.60;95.10
3418;DHT22;68007;51.312;12.372;2024-01-15T15:35:37;2.60;95.20
3418;DHT22;68007;51.312;12.372;2024-01-15T15:38:05;2.70;95.10
3418;DHT22;68007;51.312;12.372;2024-01-15T15:40:33;2.70;95.20
3418;DHT22;68007;51.312;12.372;2024-01-15T15:43:00;2.70;95.00
3418;DHT22;68007;51.312;12.372;2024-01-15T15:45:29;2.70;94.90
3418;DHT22;68007;51.312;12.372;2024-01-15T15:47:57;2.70;95.10
3418;DHT22;68007;51.312;12.372;2024-01-15T15:50:24;2.60;95.30
3418;DHT22;68007;51.312;12.372;2024-01-15T15:52:52;2.60;95.70
3418;DHT22;68007;51.312;12.372;2024-01-15T15:55:19;2.60;95.40